Time;durP1;ratioP1;P1;durP2;ratioP2;P2;SDS_P1;SDS_P2;PMS_P1;PMS_P2;Temp;Humidity;BMP_temperature;BMP_pressure;BME280_temperature;BME280_humidity;BME280_pressure;Samples;Min_cycle;Max_cycle;Signal;HPM_P1;HPM_P2
2023/09/28 00:01:13;;;;;;;0.57;0.50;;;;;;;18.22;44.26;101573.97;5063858;28;20973;-84
2023/09/28 00:03:38;;;;;;;0.63;0.50;;;;;;;18.22;44.14;101561.41;5052077;28;20483;-84
2023/09/28 00:06:04;;;;;;;0.20;0.20;;;;;;;18.27;43.78;101576.91;5049226;28;21417;-82
2023/09/28 00:08:32;;;;;;;0.50;0.50;;;;;;;18.23;43.91;101568.41;5048718;28;20396;-81
2023/09/28 00:10:59;;;;;;;0.45;0.40;;;;;;;18.18;44.02;101567.38;5064098;28;20389;-81
2023/09/28 00:13:26;;;;;;;0.30;0.30;;;;;;;18.10;44.18;101574.56;5047548;28;20477;-83
2023/09/28 00:15:53;;;;;;;0.28;0.28;;;;;;;18.10;44.33;101581.78;5079089;22;20487;-82
2023/09/28 00:18:23;;;;;;;0.43;0.40;;;;;;;17.97;44.43;101577.19;5067990;28;20376;-84
2023/09/28 00:20:49;;;;;;;0.40;0.35;;;;;;;17.90;44.80;101585.19;5071309;28;20399;-85
2023/09/28 00:23:14;;;;;;;0.35;0.30;;;;;;;17.78;45.04;101589.41;5069572;28;20393;-84
2023/09/28 00:25:40;;;;;;;0.30;0.30;;;;;;;17.63;45.52;101584.16;5067806;28;20965;-83
2023/09/28 00:28:07;;;;;;;0.30;0.30;;;;;;;17.51;46.09;101583.03;5067534;28;20433;-84
2023/09/28 00:30:33;;;;;;;0.20;0.20;;;;;;;17.44;46.22;101588.31;5068117;28;20406;-84
2023/09/28 00:33:00;;;;;;;0.20;0.20;;;;;;;17.50;46.03;101579.53;5068845;28;20422;-84
2023/09/28 00:35:26;;;;;;;0.20;0.20;;;;;;;17.57;45.74;101587.59;5069348;28;20413;-84
2023/09/28 00:37:52;;;;;;;0.15;0.15;;;;;;;17.62;45.46;101590.53;5067425;28;20485;-84
2023/09/28 00:40:28;;;;;;;0.20;0.20;;;;;;;17.61;45.30;101583.53;5067477;28;20490;-84
2023/09/28 00:42:56;;;;;;;0.30;0.30;;;;;;;17.64;45.25;101585.78;5052184;28;20391;-84
2023/09/28 00:45:23;;;;;;;0.20;0.20;;;;;;;17.62;45.20;101581.66;5034523;28;20486;-85
2023/09/28 00:47:54;;;;;;;0.30;0.30;;;;;;;17.63;45.31;101581.47;5067282;28;20395;-85
2023/09/28 00:50:24;;;;;;;0.40;0.40;;;;;;;17.59;45.32;101582.88;5028526;28;20436;-83
2023/09/28 00:52:58;;;;;;;0.20;0.20;;;;;;;17.55;45.33;101586.97;5028530;28;20392;-82
2023/09/28 00:55:27;;;;;;;0.20;0.20;;;;;;;17.55;45.29;101585.09;5029454;28;21252;-83
2023/09/28 00:57:57;;;;;;;0.55;0.45;;;;;;;17.55;45.21;101582.44;5044890;28;20993;-82
2023/09/28 01:00:31;;;;;;;0.40;0.40;;;;;;;17.59;45.05;101582.88;5044837;28;20396;-82
2023/09/28 01:02:59;;;;;;;0.23;0.23;;;;;;;17.57;45.03;101580.41;5045230;28;20451;-83
2023/09/28 01:05:27;;;;;;;0.30;0.30;;;;;;;17.60;45.05;101581.84;5029089;28;20511;-81
2023/09/28 01:07:56;;;;;;;1.13;0.82;;;;;;;17.58;44.93;101581.22;5044861;28;20452;-83
2023/09/28 01:10:25;;;;;;;0.20;0.20;;;;;;;17.63;44.91;101594.03;5012437;28;20417;-83
2023/09/28 01:12:51;;;;;;;0.30;0.30;;;;;;;17.63;44.85;101599.38;5045497;28;20403;-84
2023/09/28 01:15:19;;;;;;;0.68;0.60;;;;;;;17.61;44.79;101598.75;5044985;28;20420;-82
2023/09/28 01:17:44;;;;;;;0.22;0.22;;;;;;;17.57;44.88;101590.28;5030113;28;20401;-81
2023/09/28 01:20:17;;;;;;;0.30;0.30;;;;;;;17.56;44.96;101588.63;5055181;28;20405;-80
2023/09/28 01:22:49;;;;;;;0.50;0.50;;;;;;;17.56;44.87;101588.63;5069615;28;20378;-83
2023/09/28 01:25:15;;;;;;;0.50;0.50;;;;;;;17.60;44.71;101594.44;5067179;28;20391;-82
2023/09/28 01:27:47;;;;;;;0.30;0.28;;;;;;;17.58;44.70;101586.59;5067831;28;20749;-81
2023/09/28 01:30:16;;;;;;;0.20;0.20;;;;;;;17.53;44.85;101586.34;5067942;28;20402;-81
2023/09/28 01:32:42;;;;;;;0.30;0.30;;;;;;;17.46;44.98;101582.78;5066663;28;20387;-82
2023/09/28 01:35:16;;;;;;;0.40;0.40;;;;;;;17.34;45.13;101586.00;5067671;28;20441;-82
2023/09/28 01:37:52;;;;;;;0.20;0.20;;;;;;;17.33;45.00;101587.00;5067881;28;20393;-82
2023/09/28 01:40:17;;;;;;;0.30;0.30;;;;;;;17.33;45.15;101589.69;5068768;28;20441;-81
2023/09/28 01:42:43;;;;;;;0.20;0.20;;;;;;;17.24;45.55;101593.53;5076141;28;20387;-81
2023/09/28 01:45:10;;;;;;;0.47;0.40;;;;;;;17.09;46.07;101600.81;5064897;28;20434;-83
2023/09/28 01:47:35;;;;;;;0.30;0.30;;;;;;;17.12;45.73;101595.06;5047920;28;20457;-82
2023/09/28 01:50:03;;;;;;;0.20;0.20;;;;;;;17.21;45.69;101615.34;5065577;28;20821;-83
2023/09/28 01:52:29;;;;;;;0.60;0.60;;;;;;;17.17;45.59;101617.56;5065201;28;20399;-83
2023/09/28 01:54:57;;;;;;;0.50;0.50;;;;;;;17.13;45.78;101623.50;5048710;28;20386;-84
2023/09/28 01:57:23;;;;;;;0.20;0.20;;;;;;;17.08;45.96;101623.25;5015289;28;20468;-85
2023/09/28 01:59:49;;;;;;;0.30;0.30;;;;;;;16.97;46.10;101611.19;5032200;28;20407;-83
2023/09/28 02:02:20;;;;;;;0.20;0.20;;;;;;;16.91;46.28;101601.25;5048508;28;20474;-84
2023/09/28 02:04:46;;;;;;;0.40;0.40;;;;;;;16.83;46.77;101599.50;5048245;28;20438;-83
2023/09/28 02:07:12;;;;;;;0.13;0.13;;;;;;;16.78;47.00;101613.44;5048286;28;20426;-83
2023/09/28 02:09:39;;;;;;;0.37;0.23;;;;;;;16.76;46.90;101610.13;5030735;28;20419;-83
2023/09/28 02:12:06;;;;;;;0.32;0.32;;;;;;;16.72;47.09;101611.50;5032007;28;20391;-83
2023/09/28 02:14:32;;;;;;;0.60;0.60;;;;;;;16.82;46.91;101620.06;5065741;28;20398;-84
2023/09/28 02:16:58;;;;;;;0.60;0.40;;;;;;;16.82;46.86;101620.06;5065651;28;20394;-84
2023/09/28 02:19:23;;;;;;;0.10;0.10;;;;;;;16.85;46.63;101612.72;5066422;28;20401;-83
2023/09/28 02:21:51;;;;;;;0.20;0.20;;;;;;;16.66;46.99;101611.44;5065595;28;21082;-82
2023/09/28 02:24:17;;;;;;;0.10;0.10;;;;;;;16.59;47.12;101612.19;5065289;28;20765;-83
2023/09/28 02:26:44;;;;;;;0.30;0.30;;;;;;;16.58;47.21;101605.19;5067265;28;20934;-83
2023/09/28 02:29:12;;;;;;;0.38;0.38;;;;;;;16.54;47.35;101605.75;5070680;28;20426;-83
2023/09/28 02:31:44;;;;;;;0.60;0.50;;;;;;;16.57;47.40;101608.88;5069797;28;20410;-84
2023/09/28 02:34:10;;;;;;;0.20;0.20;;;;;;;16.62;47.07;101613.69;5072223;28;20428;-84
2023/09/28 02:36:35;;;;;;;1.40;0.47;;;;;;;16.64;47.04;101600.94;5072060;28;20398;-84
2023/09/28 02:39:05;;;;;;;0.63;0.43;;;;;;;16.67;46.91;101594.34;5072721;28;20398;-83
2023/09/28 02:41:31;;;;;;;0.20;0.20;;;;;;;16.41;47.44;101588.50;5053014;28;20397;-84
2023/09/28 02:43:56;;;;;;;0.20;0.20;;;;;;;16.49;47.43;101594.75;5072117;28;20823;-83
2023/09/28 02:46:22;;;;;;;0.10;0.10;;;;;;;16.53;47.21;101593.34;5070042;28;20568;-84
2023/09/28 02:48:47;;;;;;;0.10;0.10;;;;;;;16.57;47.28;101592.81;5070899;28;20386;-84
2023/09/28 02:51:13;;;;;;;0.20;0.20;;;;;;;16.57;47.08;101592.00;5049461;28;20887;-84
2023/09/28 02:53:39;;;;;;;0.20;0.20;;;;;;;16.55;47.06;101581.47;5049625;28;20516;-82
2023/09/28 02:56:04;;;;;;;0.25;0.25;;;;;;;16.61;47.10;101599.44;5031843;28;20396;-83
2023/09/28 02:58:31;;;;;;;0.10;0.10;;;;;;;16.56;46.93;101599.16;5049092;28;20759;-82
2023/09/28 03:00:57;;;;;;;0.30;0.30;;;;;;;16.58;47.11;101602.50;5049239;28;20461;-82
2023/09/28 03:03:23;;;;;;;0.30;0.30;;;;;;;16.56;47.00;101604.53;5036488;28;20404;-81
2023/09/28 03:05:54;;;;;;;0.13;0.13;;;;;;;16.44;47.13;101598.84;5034098;28;20499;-80
2023/09/28 03:08:20;;;;;;;0.30;0.30;;;;;;;16.38;47.62;101612.13;5031909;28;20406;-80
2023/09/28 03:10:46;;;;;;;0.15;0.15;;;;;;;16.39;47.54;101598.56;5030356;28;20473;-80
2023/09/28 03:13:13;;;;;;;0.20;0.20;;;;;;;16.46;47.34;101601.34;5029450;28;20458;-81
2023/09/28 03:15:43;;;;;;;0.40;0.40;;;;;;;16.40;47.37;101602.06;5039642;28;20425;-81
2023/09/28 03:18:10;;;;;;;0.10;0.10;;;;;;;16.33;47.29;101598.47;5030919;28;20420;-81
2023/09/28 03:20:36;;;;;;;0.40;0.40;;;;;;;16.39;47.31;101603.09;5025581;28;20412;-82
2023/09/28 03:23:02;;;;;;;0.10;0.10;;;;;;;16.37;47.23;101603.28;5056932;28;20431;-83
2023/09/28 03:25:28;;;;;;;0.20;0.20;;;;;;;16.41;47.20;101601.88;5051796;28;20419;-82
2023/09/28 03:27:59;;;;;;;0.20;0.20;;;;;;;16.40;47.10;101596.72;5065707;28;20433;-84
2023/09/28 03:30:26;;;;;;;0.10;0.10;;;;;;;16.39;47.09;101603.91;5067911;28;20409;-83
2023/09/28 03:32:54;;;;;;;0.10;0.10;;;;;;;16.39;47.00;101603.91;5069929;28;20390;-82
2023/09/28 03:35:21;;;;;;;0.10;0.10;;;;;;;16.38;47.10;101604.09;5068300;28;20394;-83
2023/09/28 03:37:47;;;;;;;0.40;0.40;;;;;;;16.36;47.18;101604.28;5079054;28;20383;-82
2023/09/28 03:40:20;;;;;;;0.20;0.20;;;;;;;16.38;47.22;101612.94;5068291;28;21376;-82
2023/09/28 03:42:50;;;;;;;0.20;0.20;;;;;;;16.31;47.23;101609.34;5070261;28;20507;-84
2023/09/28 03:45:22;;;;;;;0.10;0.10;;;;;;;16.31;47.18;101611.22;5072722;28;20385;-84
2023/09/28 03:47:53;;;;;;;0.10;0.10;;;;;;;16.26;47.27;101611.78;5071838;28;20426;-85
2023/09/28 03:50:20;;;;;;;1.08;0.80;;;;;;;16.22;47.30;101608.66;5087995;28;20411;-89
2023/09/28 03:52:46;;;;;;;0.10;0.10;;;;;;;16.25;47.31;101612.78;5088922;28;20469;-89
2023/09/28 03:55:15;;;;;;;0.30;0.30;;;;;;;16.27;47.03;101615.28;5089547;28;20422;-90
2023/09/28 03:57:44;;;;;;;0.38;0.28;;;;;;;16.17;47.57;101615.53;5050968;28;20467;-85
2023/09/28 04:00:14;;;;;;;0.20;0.20;;;;;;;16.14;47.86;101621.28;5038213;28;20393;-82
2023/09/28 04:02:41;;;;;;;0.50;0.50;;;;;;;16.08;48.03;101624.69;5021028;28;20390;-83
2023/09/28 04:05:13;;;;;;;0.17;0.17;;;;;;;16.10;47.96;101622.66;5030725;28;20390;-84
2023/09/28 04:07:42;;;;;;;0.30;0.30;;;;;;;16.05;48.10;101617.88;5016611;28;21189;-82
2023/09/28 04:10:11;;;;;;;0.10;0.10;;;;;;;16.05;47.84;101624.03;5018592;28;20438;-81
2023/09/28 04:12:44;;;;;;;0.10;0.10;;;;;;;16.09;48.16;101631.69;5029700;28;20390;-80
2023/09/28 04:15:11;;;;;;;0.30;0.20;;;;;;;16.10;47.96;101638.69;5014484;28;20425;-81
2023/09/28 04:17:37;;;;;;;0.10;0.10;;;;;;;16.10;47.95;101633.34;5000243;28;20429;-82
2023/09/28 04:20:09;;;;;;;0.50;0.40;;;;;;;16.02;48.26;101632.41;5031851;28;20402;-82
2023/09/28 04:22:37;;;;;;;0.20;0.20;;;;;;;15.96;48.50;101640.38;5032555;28;20394;-81
2023/09/28 04:25:04;;;;;;;0.20;0.20;;;;;;;15.81;48.72;101638.50;5016393;28;20394;-82
2023/09/28 04:27:29;;;;;;;0.10;0.10;;;;;;;15.71;49.34;101637.06;5031834;28;20402;-82
2023/09/28 04:29:56;;;;;;;0.40;0.40;;;;;;;15.68;49.43;101633.75;5052356;28;20942;-83
2023/09/28 04:32:23;;;;;;;0.20;0.20;;;;;;;15.68;49.09;101633.75;5049783;28;20388;-82
2023/09/28 04:34:48;;;;;;;0.30;0.30;;;;;;;15.71;48.99;101637.88;5050873;28;20467;-82
2023/09/28 04:37:19;;;;;;;0.30;0.30;;;;;;;15.77;49.08;101641.69;5066818;28;20479;-82
2023/09/28 04:39:46;;;;;;;0.30;0.30;;;;;;;15.86;48.70;101630.78;5050196;28;20480;-82
2023/09/28 04:42:12;;;;;;;0.20;0.20;;;;;;;15.92;48.47;101645.25;5033804;28;20400;-83
2023/09/28 04:44:39;;;;;;;1.10;0.45;;;;;;;15.93;48.52;101638.88;5050723;28;20407;-83
2023/09/28 04:47:05;;;;;;;0.17;0.17;;;;;;;15.93;48.60;101651.41;5050922;28;20447;-82
2023/09/28 04:49:34;;;;;;;0.63;0.47;;;;;;;15.96;48.37;101640.38;5048726;28;20507;-82
2023/09/28 04:52:00;;;;;;;0.20;0.20;;;;;;;15.96;48.53;101643.84;5051738;28;20875;-83
2023/09/28 04:54:42;;;;;;;0.10;0.10;;;;;;;15.94;48.47;101651.22;5034026;28;20384;-84
2023/09/28 04:57:10;;;;;;;0.88;0.70;;;;;;;15.92;48.61;101649.75;5049994;28;20380;-83
2023/09/28 04:59:41;;;;;;;0.17;0.17;;;;;;;15.96;48.39;101654.56;5050560;28;20913;-83
2023/09/28 05:02:11;;;;;;;0.10;0.10;;;;;;;16.02;48.54;101658.34;5050766;28;20411;-83
2023/09/28 05:04:38;;;;;;;0.22;0.22;;;;;;;15.98;48.58;101665.06;5027810;28;20405;-84
2023/09/28 05:07:04;;;;;;;0.30;0.30;;;;;;;15.98;48.79;101665.91;5011046;28;20390;-82
2023/09/28 05:09:38;;;;;;;0.10;0.10;;;;;;;16.18;48.50;101666.19;5027637;28;20484;-81
2023/09/28 05:12:05;;;;;;;0.17;0.17;;;;;;;16.28;48.24;101665.09;5012232;28;20783;-85
2023/09/28 05:14:31;;;;;;;0.20;0.20;;;;;;;16.29;48.19;101666.75;4995832;28;20414;-84
2023/09/28 05:16:57;;;;;;;0.40;0.30;;;;;;;16.40;48.06;101671.63;5011551;28;20396;-84
2023/09/28 05:19:29;;;;;;;0.40;0.40;;;;;;;16.43;48.07;101671.28;5011692;28;20428;-86
2023/09/28 05:22:00;;;;;;;0.10;0.10;;;;;;;16.51;47.98;101665.00;5012409;28;20398;-83
2023/09/28 05:24:27;;;;;;;0.20;0.20;;;;;;;16.56;47.95;101665.25;5012406;28;20395;-81
2023/09/28 05:26:56;;;;;;;0.30;0.30;;;;;;;16.54;48.24;101667.31;5027577;28;20436;-81
2023/09/28 05:29:25;;;;;;;4.60;0.40;;;;;;;16.57;48.25;101664.25;5027547;28;20417;-81
2023/09/28 05:31:51;;;;;;;0.10;0.10;;;;;;;16.74;48.17;101670.22;5027479;28;20393;-82
2023/09/28 05:34:18;;;;;;;0.30;0.30;;;;;;;16.63;48.41;101672.34;4994254;28;20436;-82
2023/09/28 05:36:47;;;;;;;0.20;0.20;;;;;;;16.71;48.51;101673.28;5048006;28;20404;-88
2023/09/28 05:39:21;;;;;;;0.30;0.30;;;;;;;16.85;48.19;101667.09;5053341;28;20384;-89
2023/09/28 05:42:13;;;;;;;0.30;0.30;;;;;;;17.05;47.99;101675.38;5053426;28;20424;-91
2023/09/28 05:44:42;;;;;;;0.20;0.20;;;;;;;17.20;47.75;101670.78;5055534;28;20399;-86
2023/09/28 05:47:29;;;;;;;0.22;0.22;;;;;;;17.30;47.55;101673.13;5055131;28;20847;-87
2023/09/28 05:49:57;;;;;;;0.10;0.10;;;;;;;17.45;47.40;101681.13;5053200;28;20781;-83
2023/09/28 05:52:24;;;;;;;0.20;0.20;;;;;;;17.63;47.20;101680.69;5054216;28;20389;-86
2023/09/28 05:54:55;;;;;;;0.20;0.20;;;;;;;17.58;47.33;101688.47;5061992;28;20404;-88
2023/09/28 05:57:26;;;;;;;0.20;0.20;;;;;;;17.61;47.50;101679.19;5056438;28;20811;-85
2023/09/28 05:59:53;;;;;;;0.30;0.30;;;;;;;17.67;47.54;101694.53;5052978;28;20428;-89
2023/09/28 06:02:27;;;;;;;0.20;0.20;;;;;;;17.62;47.64;101688.91;5054471;28;20452;-87
2023/09/28 06:04:53;;;;;;;0.20;0.20;;;;;;;17.83;47.32;101686.19;5056510;28;20376;-87
2023/09/28 06:07:23;;;;;;;0.50;0.50;;;;;;;17.76;47.34;101678.09;5059248;28;21112;-86
2023/09/28 06:10:03;;;;;;;0.77;0.77;;;;;;;17.87;47.19;101686.69;5055568;28;20826;-86
2023/09/28 06:12:33;;;;;;;0.13;0.13;;;;;;;17.91;47.27;101682.56;5039865;28;20395;-88
2023/09/28 06:15:05;;;;;;;0.50;0.50;;;;;;;17.92;47.41;101685.06;5056180;28;20492;-83
2023/09/28 06:17:36;;;;;;;0.80;0.80;;;;;;;18.17;47.27;101698.03;5060888;28;20396;-84
2023/09/28 06:20:05;;;;;;;2.85;1.50;;;;;;;18.28;47.10;101691.31;5058467;28;20403;-84
2023/09/28 06:22:33;;;;;;;0.30;0.30;;;;;;;18.32;47.02;101695.25;5056340;28;20392;-89
2023/09/28 06:25:16;;;;;;;0.10;0.10;;;;;;;18.42;47.01;101695.72;5057291;28;20391;-89
2023/09/28 06:27:43;;;;;;;0.22;0.22;;;;;;;18.60;46.92;101692.50;5022921;28;20773;-90
2023/09/28 06:30:10;;;;;;;0.20;0.20;;;;;;;18.81;46.70;101688.88;5056584;28;20419;-86
2023/09/28 06:32:37;;;;;;;0.15;0.15;;;;;;;18.93;46.56;101686.47;5056934;28;20414;-88
2023/09/28 06:35:04;;;;;;;0.47;0.47;;;;;;;19.02;46.42;101693.31;5005483;28;20400;-87
2023/09/28 06:37:37;;;;;;;0.30;0.25;;;;;;;19.00;46.60;101689.19;5055452;28;20768;-88
2023/09/28 06:40:07;;;;;;;0.10;0.10;;;;;;;19.19;46.49;101692.94;5055766;28;20759;-87
2023/09/28 06:42:32;;;;;;;0.30;0.30;;;;;;;19.33;46.22;101699.19;5051968;28;20388;-90
2023/09/28 06:44:58;;;;;;;0.30;0.30;;;;;;;19.40;46.32;101695.47;5056643;28;20403;-84
2023/09/28 06:47:26;;;;;;;1.40;0.10;;;;;;;19.51;46.01;101696.72;5054654;28;20385;-86
2023/09/28 06:49:53;;;;;;;0.15;0.15;;;;;;;19.61;45.80;101686.38;5055388;28;20507;-85
2023/09/28 06:52:19;;;;;;;0.20;0.20;;;;;;;19.73;45.75;101693.84;5058232;28;20396;-89
2023/09/28 06:54:44;;;;;;;0.80;0.50;;;;;;;19.83;45.85;101695.09;5057697;28;20377;-89
2023/09/28 06:57:10;;;;;;;0.20;0.20;;;;;;;19.96;45.54;101694.28;5057749;28;20857;-87
2023/09/28 06:59:36;;;;;;;5.80;0.60;;;;;;;20.10;45.36;101705.03;5053704;28;20436;-88
2023/09/28 07:02:05;;;;;;;0.20;0.20;;;;;;;20.23;45.15;101699.63;5054601;28;20377;-90
2023/09/28 07:04:32;;;;;;;0.22;0.22;;;;;;;20.35;45.12;101703.31;5055231;28;20388;-87
2023/09/28 07:06:58;;;;;;;0.40;0.40;;;;;;;20.40;44.81;101689.22;5058867;28;20404;-92
2023/09/28 07:09:25;;;;;;;0.20;0.20;;;;;;;20.57;44.57;101697.66;5055591;28;20478;-85
2023/09/28 07:11:52;;;;;;;0.20;0.20;;;;;;;20.63;44.56;101699.53;5056159;28;20396;-89
2023/09/28 07:14:17;;;;;;;0.30;0.30;;;;;;;20.78;44.26;101688.50;5037894;28;20397;-87
2023/09/28 07:16:43;;;;;;;0.10;0.10;;;;;;;20.94;44.04;101701.50;5056006;28;20922;-88
2023/09/28 07:19:09;;;;;;;0.60;0.60;;;;;;;21.01;43.99;101701.44;5055852;28;20419;-87
2023/09/28 07:21:36;;;;;;;0.40;0.40;;;;;;;21.03;43.48;101706.63;5055641;28;20476;-88
2023/09/28 07:24:02;;;;;;;0.50;0.30;;;;;;;21.15;43.28;101697.63;5053733;28;20393;-84
2023/09/28 07:26:29;;;;;;;0.30;0.30;;;;;;;21.24;42.85;101706.28;5053808;28;20491;-85
2023/09/28 07:28:54;;;;;;;0.10;0.10;;;;;;;21.37;42.76;101714.31;5052753;28;20397;-86
2023/09/28 07:31:22;;;;;;;0.40;0.40;;;;;;;21.39;42.31;101711.38;5052361;28;20471;-87
2023/09/28 07:33:48;;;;;;;0.10;0.10;;;;;;;21.51;42.22;101706.97;5035517;28;20422;-85
2023/09/28 07:36:15;;;;;;;0.20;0.20;;;;;;;21.65;41.97;101706.88;5058365;28;20388;-84
2023/09/28 07:38:43;;;;;;;0.20;0.20;;;;;;;21.82;41.42;101707.97;5057922;28;20408;-84
2023/09/28 07:41:10;;;;;;;0.20;0.20;;;;;;;21.90;41.57;101707.72;5054635;28;20388;-86
2023/09/28 07:43:36;;;;;;;0.25;0.25;;;;;;;22.00;41.20;101706.38;5053355;28;20905;-88
2023/09/28 07:46:02;;;;;;;0.20;0.20;;;;;;;22.10;40.62;101709.41;5054349;28;20399;-86
2023/09/28 07:48:30;;;;;;;0.20;0.20;;;;;;;22.24;40.50;101699.31;5053350;28;20389;-88
2023/09/28 07:50:56;;;;;;;0.10;0.10;;;;;;;22.31;39.70;101698.19;5054672;28;20408;-87
2023/09/28 07:53:22;;;;;;;1.80;0.38;;;;;;;22.37;39.46;101698.34;5055833;28;20388;-84
2023/09/28 07:55:47;;;;;;;0.13;0.13;;;;;;;22.44;39.50;101691.00;5051934;28;20828;-85
2023/09/28 07:58:13;;;;;;;0.10;0.10;;;;;;;22.46;39.62;101697.00;5052102;28;20484;-87
2023/09/28 08:00:39;;;;;;;0.20;0.20;;;;;;;22.51;39.75;101694.47;5052359;28;20771;-87
2023/09/28 08:03:05;;;;;;;0.10;0.10;;;;;;;22.59;39.04;101694.13;5052733;28;20381;-86
2023/09/28 08:05:35;;;;;;;0.15;0.15;;;;;;;22.57;38.87;101698.94;5054473;28;20454;-87
2023/09/28 08:08:02;;;;;;;0.70;0.70;;;;;;;22.64;38.31;101698.88;5053085;28;20487;-86
2023/09/28 08:10:27;;;;;;;0.20;0.20;;;;;;;22.73;37.73;101702.91;5056223;28;20408;-84
2023/09/28 08:12:54;;;;;;;0.23;0.23;;;;;;;22.81;37.93;101701.78;5042740;28;20431;-86
2023/09/28 08:15:21;;;;;;;0.22;0.22;;;;;;;22.82;38.29;101689.91;5054975;28;20500;-86
2023/09/28 08:17:50;;;;;;;0.20;0.20;;;;;;;22.80;38.34;101690.13;5055255;28;20381;-88
2023/09/28 08:20:17;;;;;;;0.10;0.10;;;;;;;22.96;38.17;101690.53;5054323;28;20397;-86
2023/09/28 08:22:44;;;;;;;1.30;0.50;;;;;;;23.04;38.35;101691.09;5053372;28;20593;-87
2023/09/28 08:25:10;;;;;;;0.35;0.35;;;;;;;23.14;37.44;101687.00;5051929;28;20388;-86
2023/09/28 08:27:37;;;;;;;0.20;0.20;;;;;;;23.22;36.98;101683.97;5052099;28;20392;-87
2023/09/28 08:30:07;;;;;;;0.20;0.20;;;;;;;23.21;36.70;101683.16;5053313;28;20905;-86
2023/09/28 08:32:33;;;;;;;0.20;0.20;;;;;;;23.32;36.90;101678.00;5058368;28;20539;-85
2023/09/28 08:34:59;;;;;;;0.32;0.32;;;;;;;23.38;36.65;101672.50;5055101;28;20809;-87
2023/09/28 08:37:25;;;;;;;0.10;0.10;;;;;;;23.39;36.08;101676.84;5051923;28;20388;-85
2023/09/28 08:39:57;;;;;;;0.10;0.10;;;;;;;23.50;36.34;101671.69;5051775;28;20389;-87
2023/09/28 08:42:29;;;;;;;0.20;0.20;;;;;;;23.53;36.25;101665.81;5036226;28;20399;-86
2023/09/28 08:45:01;;;;;;;0.20;0.20;;;;;;;23.73;36.24;101671.69;5035962;28;20401;-87
2023/09/28 08:47:31;;;;;;;0.20;0.20;;;;;;;23.70;35.83;101669.47;5054111;28;20393;-86
2023/09/28 08:49:58;;;;;;;0.10;0.10;;;;;;;23.70;35.85;101661.34;5038569;28;20404;-87
2023/09/28 08:52:28;;;;;;;0.10;0.10;;;;;;;23.84;35.61;101660.09;5052921;28;20396;-85
2023/09/28 08:54:55;;;;;;;0.52;0.40;;;;;;;23.90;35.36;101661.03;5052924;28;20854;-86
2023/09/28 08:57:35;;;;;;;0.20;0.20;;;;;;;24.07;35.18;101671.97;5036276;28;20481;-88
2023/09/28 09:00:04;;;;;;;0.40;0.30;;;;;;;24.08;35.30;101661.97;5054153;28;20401;-85
2023/09/28 09:02:32;;;;;;;0.10;0.10;;;;;;;24.07;35.48;101666.53;5035316;28;20401;-86
2023/09/28 09:04:58;;;;;;;0.10;0.10;;;;;;;24.12;34.97;101660.44;5053439;28;20438;-88
2023/09/28 09:07:25;;;;;;;0.10;0.10;;;;;;;24.24;35.35;101661.25;5054415;28;20392;-86
2023/09/28 09:09:55;;;;;;;0.10;0.10;;;;;;;24.28;34.38;101662.41;5055230;28;20481;-86
2023/09/28 09:12:22;;;;;;;0.30;0.30;;;;;;;24.29;34.31;101671.34;5054831;28;20439;-86
2023/09/28 09:14:50;;;;;;;0.40;0.40;;;;;;;24.28;34.21;101664.28;5052774;28;20384;-85
2023/09/28 09:17:16;;;;;;;0.13;0.13;;;;;;;24.39;34.27;101672.38;5035800;28;20408;-87
2023/09/28 09:19:44;;;;;;;0.20;0.20;;;;;;;24.35;34.12;101662.28;5054159;28;20389;-86
2023/09/28 09:22:27;;;;;;;0.13;0.13;;;;;;;24.51;34.10;101658.81;5052868;28;20385;-85
2023/09/28 09:24:58;;;;;;;0.60;0.30;;;;;;;24.55;34.22;101653.78;5054544;28;20388;-86
2023/09/28 09:27:31;;;;;;;0.30;0.30;;;;;;;24.65;33.93;101664.81;5055459;28;20426;-86
2023/09/28 09:29:58;;;;;;;0.10;0.10;;;;;;;24.70;34.06;101661.38;5054159;28;20500;-85
2023/09/28 09:32:26;;;;;;;0.10;0.10;;;;;;;24.85;34.15;101672.53;5054076;28;20384;-86
2023/09/28 09:34:55;;;;;;;0.30;0.30;;;;;;;24.88;33.75;101657.66;5054587;28;20388;-85
2023/09/28 09:37:21;;;;;;;0.10;0.10;;;;;;;24.92;33.65;101658.78;5055290;28;20479;-84
2023/09/28 09:39:47;;;;;;;0.30;0.20;;;;;;;24.93;33.13;101660.47;5056157;28;20482;-88
2023/09/28 09:42:13;;;;;;;0.15;0.15;;;;;;;24.97;33.05;101665.16;5054587;28;20379;-86
2023/09/28 09:44:41;;;;;;;0.10;0.10;;;;;;;24.98;32.96;101657.84;5036987;28;20515;-88
2023/09/28 09:47:14;;;;;;;0.30;0.30;;;;;;;25.00;33.37;101659.22;5054440;28;20415;-86
2023/09/28 09:49:40;;;;;;;0.10;0.10;;;;;;;25.07;33.48;101663.69;5055396;28;20512;-85
2023/09/28 09:52:08;;;;;;;0.30;0.30;;;;;;;25.12;33.72;101655.63;5053375;28;20376;-85
2023/09/28 09:54:36;;;;;;;0.20;0.20;;;;;;;25.03;32.93;101657.09;5056278;28;20389;-86
2023/09/28 09:57:06;;;;;;;0.20;0.20;;;;;;;25.18;32.98;101654.66;5019140;28;20388;-85
2023/09/28 09:59:34;;;;;;;0.10;0.10;;;;;;;25.27;33.29;101649.69;5051232;28;20762;-85
2023/09/28 10:02:03;;;;;;;0.25;0.25;;;;;;;25.37;33.18;101650.69;5054146;28;20760;-87
2023/09/28 10:04:31;;;;;;;0.10;0.10;;;;;;;25.43;33.54;101646.16;5055152;28;20543;-86
2023/09/28 10:07:01;;;;;;;0.10;0.10;;;;;;;25.44;33.64;101647.78;5052595;28;20383;-86
2023/09/28 10:09:27;;;;;;;0.17;0.17;;;;;;;25.53;33.22;101645.47;5051505;28;20412;-86
2023/09/28 10:11:54;;;;;;;0.20;0.20;;;;;;;25.49;33.81;101637.00;5051430;28;20476;-86
2023/09/28 10:14:25;;;;;;;0.10;0.10;;;;;;;25.70;33.63;101645.50;5051721;28;20479;-88
2023/09/28 10:16:56;;;;;;;0.40;0.40;;;;;;;25.76;33.11;101631.72;5052821;28;20418;-85
2023/09/28 10:19:24;;;;;;;0.20;0.20;;;;;;;25.66;32.76;101639.72;5053706;28;20895;-86
2023/09/28 10:21:53;;;;;;;0.10;0.10;;;;;;;25.65;33.04;101626.41;5053149;28;20814;-86
2023/09/28 10:24:30;;;;;;;0.20;0.20;;;;;;;25.76;33.30;101625.47;5057902;28;20399;-89
2023/09/28 10:27:07;;;;;;;0.10;0.10;;;;;;;25.93;33.23;101626.28;5054652;28;20404;-84
2023/09/28 10:29:34;;;;;;;0.22;0.22;;;;;;;25.87;32.59;101634.59;5053976;28;20458;-88
2023/09/28 10:32:02;;;;;;;0.10;0.10;;;;;;;25.90;32.55;101626.75;5044997;28;20408;-84
2023/09/28 10:34:29;;;;;;;0.15;0.15;;;;;;;26.03;32.78;101622.06;5059939;28;20377;-89
2023/09/28 10:37:31;;;;;;;1.20;0.80;;;;;;;26.11;32.40;101621.63;5056880;28;20392;-87
2023/09/28 10:40:00;;;;;;;0.20;0.20;;;;;;;26.00;32.07;101623.41;5057842;28;20400;-85
2023/09/28 10:42:28;;;;;;;0.32;0.32;;;;;;;25.98;31.90;101630.16;5056947;28;20388;-87
2023/09/28 10:44:57;;;;;;;0.10;0.10;;;;;;;26.08;32.35;101613.97;5040654;28;20409;-87
2023/09/28 10:47:25;;;;;;;0.20;0.20;;;;;;;26.10;32.41;101609.13;5055350;28;20444;-86
2023/09/28 10:50:04;;;;;;;0.10;0.10;;;;;;;26.22;32.42;101612.53;5059346;28;20413;-86
2023/09/28 10:52:30;;;;;;;0.10;0.10;;;;;;;26.17;31.74;101606.22;5061610;28;20422;-85
2023/09/28 10:55:24;;;;;;;0.10;0.10;;;;;;;26.03;31.61;101603.03;5062322;28;20385;-85
2023/09/28 10:57:52;;;;;;;0.13;0.13;;;;;;;26.15;31.62;101608.38;5057622;28;20464;-87
2023/09/28 11:00:18;;;;;;;0.10;0.10;;;;;;;26.28;31.72;101605.25;5056601;28;20377;-86
2023/09/28 11:02:44;;;;;;;0.10;0.10;;;;;;;26.32;31.83;101600.94;5056795;28;20388;-86
2023/09/28 11:05:11;;;;;;;0.20;0.20;;;;;;;26.37;31.77;101601.00;5036316;28;20408;-86
2023/09/28 11:07:40;;;;;;;0.20;0.20;;;;;;;26.37;31.62;101597.47;5057029;28;20410;-86
2023/09/28 11:10:08;;;;;;;0.10;0.10;;;;;;;26.43;31.88;101591.00;5056922;28;20405;-86
2023/09/28 11:12:35;;;;;;;0.10;0.10;;;;;;;26.46;31.89;101587.78;5057289;28;20377;-87
2023/09/28 11:15:03;;;;;;;0.10;0.10;;;;;;;26.56;31.97;101584.34;5055776;28;20392;-86
2023/09/28 11:17:29;;;;;;;0.10;0.10;;;;;;;26.55;31.51;101583.53;5055080;28;20807;-87
2023/09/28 11:19:56;;;;;;;0.30;0.30;;;;;;;26.51;31.15;101579.69;5056273;28;20407;-85
2023/09/28 11:22:21;;;;;;;0.22;0.22;;;;;;;26.55;31.11;101578.09;5056288;28;20548;-85
2023/09/28 11:24:47;;;;;;;0.10;0.10;;;;;;;26.65;30.92;101571.97;5055548;28;20479;-86
2023/09/28 11:27:16;;;;;;;0.20;0.20;;;;;;;26.69;31.08;101573.91;5055760;28;20445;-86
2023/09/28 11:29:43;;;;;;;0.15;0.15;;;;;;;26.79;31.02;101564.22;5038027;28;20496;-85